createdAt,value
2022-12-16T00:00:16.927Z,19.13
2022-12-16T00:03:05.046Z,19.33
2022-12-16T00:05:52.996Z,16.63
2022-12-16T00:08:42.830Z,18.83
2022-12-16T00:11:32.311Z,17.97
2022-12-16T00:14:21.598Z,16.47
2022-12-16T00:17:09.528Z,19.20
2022-12-16T00:19:57.464Z,18.50
2022-12-16T00:22:45.437Z,18.70
2022-12-16T00:25:33.357Z,16.27
2022-12-16T00:28:22.866Z,20.90
2022-12-16T00:31:13.193Z,19.30
2022-12-16T00:34:01.248Z,18.33
2022-12-16T00:36:49.262Z,18.37
2022-12-16T00:39:37.224Z,18.97
2022-12-16T00:42:25.141Z,20.57
2022-12-16T00:45:13.100Z,21.23
2022-12-16T00:48:02.567Z,18.40
2022-12-16T00:50:51.897Z,19.73
2022-12-16T00:53:40.082Z,20.20
2022-12-16T00:56:28.085Z,19.53
2022-12-16T00:59:16.137Z,19.80
2022-12-16T01:02:04.417Z,17.90
2022-12-16T01:04:53.851Z,16.63
2022-12-16T01:07:42.827Z,17.77
2022-12-16T01:10:30.731Z,19.17
2022-12-16T01:13:18.719Z,20.20
2022-12-16T01:16:07.171Z,22.97
2022-12-16T01:18:57.014Z,18.43
2022-12-16T01:21:46.394Z,18.80
2022-12-16T01:24:34.421Z,18.03
2022-12-16T01:27:22.368Z,16.20
2022-12-16T01:30:12.044Z,16.73
2022-12-16T01:32:59.978Z,19.30
2022-12-16T01:35:55.912Z,16.87
2022-12-16T01:38:45.802Z,17.03
2022-12-16T01:41:33.746Z,17.50
2022-12-16T01:44:24.436Z,17.13
2022-12-16T01:47:17.475Z,16.10
2022-12-16T01:50:11.582Z,17.60
2022-12-16T01:53:02.756Z,16.00
2022-12-16T01:55:54.700Z,16.50
2022-12-16T01:58:44.829Z,13.63
2022-12-16T02:01:33.117Z,13.93
2022-12-16T02:04:21.133Z,15.57
2022-12-16T02:07:09.080Z,12.67
2022-12-16T02:09:57.354Z,15.33
2022-12-16T02:12:55.514Z,13.37
2022-12-16T02:15:49.402Z,13.03
2022-12-16T02:18:48.341Z,11.70
2022-12-16T02:21:58.156Z,12.33
2022-12-16T02:25:01.314Z,8.90
2022-12-16T02:28:05.768Z,10.77
2022-12-16T02:31:10.812Z,9.13
2022-12-16T02:34:09.259Z,8.40
2022-12-16T02:37:07.251Z,9.10
2022-12-16T02:40:01.033Z,9.83
2022-12-16T02:42:55.491Z,8.60
2022-12-16T02:45:44.503Z,9.43
2022-12-16T02:48:33.826Z,8.67
2022-12-16T02:51:24.008Z,8.67
2022-12-16T02:54:13.268Z,7.80
2022-12-16T02:57:13.500Z,8.93
2022-12-16T03:00:05.877Z,8.87
2022-12-16T03:02:58.111Z,9.53
2022-12-16T03:05:49.811Z,8.60
2022-12-16T03:09:06.267Z,8.30
2022-12-16T03:11:57.662Z,8.27
2022-12-16T03:14:49.508Z,8.57
2022-12-16T03:17:38.692Z,7.77
2022-12-16T03:20:31.172Z,8.83
2022-12-16T03:23:26.734Z,9.27
2022-12-16T03:26:19.349Z,9.33
2022-12-16T03:29:12.839Z,9.13
2022-12-16T03:32:06.112Z,7.83
2022-12-16T03:35:00.162Z,7.73
2022-12-16T03:37:51.198Z,9.10
2022-12-16T03:40:42.993Z,8.23
2022-12-16T03:43:31.501Z,9.10
2022-12-16T03:46:20.104Z,7.63
2022-12-16T03:49:08.042Z,9.13
2022-12-16T03:51:56.270Z,8.70
2022-12-16T03:54:44.160Z,9.23
2022-12-16T03:57:33.386Z,10.13
2022-12-16T04:00:22.036Z,7.33
2022-12-16T04:03:10.163Z,8.70
2022-12-16T04:05:58.258Z,9.10
2022-12-16T04:08:46.494Z,7.70
2022-12-16T04:11:52.147Z,7.23
2022-12-16T04:14:58.772Z,6.97
2022-12-16T04:18:04.108Z,8.17
2022-12-16T04:21:12.360Z,7.30
2022-12-16T04:24:17.879Z,7.40
2022-12-16T04:27:23.677Z,8.30
2022-12-16T04:30:20.202Z,6.87
2022-12-16T04:33:28.623Z,6.80
2022-12-16T04:36:34.328Z,7.50
2022-12-16T04:39:45.031Z,7.63
2022-12-16T04:42:51.150Z,6.33
2022-12-16T04:45:58.859Z,6.40
2022-12-16T04:49:04.468Z,6.27
2022-12-16T04:52:09.790Z,6.13
2022-12-16T04:55:15.574Z,7.17
2022-12-16T04:58:21.381Z,5.87
2022-12-16T05:01:28.562Z,5.27
2022-12-16T05:04:34.021Z,5.63
2022-12-16T05:07:39.516Z,4.93
2022-12-16T05:10:45.187Z,5.50
2022-12-16T05:13:47.022Z,5.93
2022-12-16T05:16:54.037Z,5.57
2022-12-16T05:19:59.725Z,5.97
2022-12-16T05:23:05.206Z,5.80
2022-12-16T05:26:11.001Z,5.87
2022-12-16T05:29:16.473Z,4.63
2022-12-16T05:32:31.846Z,5.10
2022-12-16T05:35:37.668Z,4.57
2022-12-16T05:38:43.318Z,4.53
2022-12-16T05:41:48.990Z,4.03
2022-12-16T05:44:54.500Z,4.13
2022-12-16T05:48:00.514Z,5.27
2022-12-16T05:51:12.535Z,7.90
2022-12-16T05:54:18.385Z,4.60
2022-12-16T05:57:24.285Z,4.70
2022-12-16T06:00:31.666Z,4.60
2022-12-16T06:03:39.184Z,3.97
2022-12-16T06:06:45.226Z,4.53
2022-12-16T06:09:54.863Z,5.67
2022-12-16T06:13:04.913Z,3.83
2022-12-16T06:16:10.938Z,4.40
2022-12-16T06:19:17.937Z,4.53
2022-12-16T06:22:23.739Z,4.30
2022-12-16T06:25:29.069Z,4.43
2022-12-16T06:28:34.798Z,5.07
2022-12-16T06:31:40.666Z,4.33
2022-12-16T06:34:47.535Z,5.30
2022-12-16T06:37:52.903Z,4.90
2022-12-16T06:40:58.590Z,4.17
2022-12-16T06:44:04.150Z,4.83
2022-12-16T06:47:09.975Z,4.13
2022-12-16T06:50:16.856Z,4.17
2022-12-16T06:53:23.154Z,4.77
2022-12-16T06:56:28.883Z,4.27
2022-12-16T06:59:34.176Z,4.37
2022-12-16T07:02:39.682Z,4.83
2022-12-16T07:05:27.110Z,4.80
2022-12-16T07:08:12.515Z,4.57
2022-12-16T07:11:04.873Z,5.80
2022-12-16T07:14:01.480Z,4.27
2022-12-16T07:16:46.826Z,4.33
2022-12-16T07:19:32.107Z,5.47
2022-12-16T07:22:18.845Z,4.90
2022-12-16T07:25:03.887Z,4.67
2022-12-16T07:27:49.204Z,4.67
2022-12-16T07:30:34.791Z,4.53
2022-12-16T07:33:20.193Z,4.73
2022-12-16T07:36:06.140Z,4.90
2022-12-16T07:38:52.619Z,4.80
2022-12-16T07:41:37.884Z,4.87
2022-12-16T07:44:25.976Z,5.77
2022-12-16T07:47:17.120Z,4.83
2022-12-16T07:50:02.600Z,5.80
2022-12-16T07:52:47.780Z,5.50
2022-12-16T07:55:34.473Z,5.43
2022-12-16T07:58:19.681Z,5.43
2022-12-16T08:01:09.453Z,5.23
2022-12-16T08:03:55.106Z,5.00
2022-12-16T08:06:41.333Z,5.20
2022-12-16T08:09:22.960Z,4.80
2022-12-16T08:12:09.756Z,5.70
2022-12-16T08:14:55.148Z,4.70
2022-12-16T08:17:43.088Z,5.73
2022-12-16T08:20:29.145Z,5.07
2022-12-16T08:23:14.496Z,4.80
2022-12-16T08:25:59.925Z,5.10
2022-12-16T08:28:46.575Z,5.33
2022-12-16T08:31:31.867Z,5.50
2022-12-16T08:34:17.334Z,6.27
2022-12-16T08:37:02.583Z,5.20
2022-12-16T08:39:59.134Z,6.00
2022-12-16T08:42:52.896Z,5.33
2022-12-16T08:45:40.034Z,5.43
2022-12-16T08:48:25.703Z,5.43
2022-12-16T08:51:10.952Z,6.13
2022-12-16T08:53:56.324Z,6.77
2022-12-16T08:56:41.650Z,6.83
2022-12-16T08:59:27.434Z,7.23
2022-12-16T09:02:14.533Z,7.03
2022-12-16T09:04:59.815Z,7.23
2022-12-16T09:07:45.130Z,7.13
2022-12-16T09:10:33.375Z,6.53
2022-12-16T09:13:32.990Z,7.17
2022-12-16T09:16:19.823Z,7.20
2022-12-16T09:19:06.457Z,7.10
2022-12-16T09:21:52.784Z,6.23
2022-12-16T09:24:42.422Z,7.50
2022-12-16T09:27:27.868Z,6.33
2022-12-16T09:30:13.209Z,7.67
2022-12-16T09:33:00.582Z,7.97
2022-12-16T09:35:47.467Z,7.40
2022-12-16T09:38:33.076Z,9.07
2022-12-16T09:41:38.388Z,8.30
2022-12-16T09:44:36.186Z,8.00
2022-12-16T09:47:29.149Z,7.60
2022-12-16T09:50:14.951Z,11.63
2022-12-16T09:53:06.638Z,7.03
2022-12-16T09:55:57.529Z,8.17
2022-12-16T09:58:46.174Z,7.23
2022-12-16T10:01:32.476Z,8.90
2022-12-16T10:04:18.222Z,8.20
2022-12-16T10:07:05.599Z,8.87
2022-12-16T10:10:03.249Z,7.97
2022-12-16T10:12:58.211Z,10.50
2022-12-16T10:15:51.122Z,11.17
2022-12-16T10:18:49.588Z,11.00
2022-12-16T10:21:39.799Z,10.93
2022-12-16T10:24:36.216Z,14.43
2022-12-16T10:27:31.998Z,12.17
2022-12-16T10:30:19.346Z,12.93
2022-12-16T10:33:06.514Z,14.47
2022-12-16T10:35:55.947Z,14.13
2022-12-16T10:38:46.737Z,17.47
2022-12-16T10:41:32.554Z,16.90
2022-12-16T10:44:31.740Z,18.77
2022-12-16T10:47:16.930Z,18.07
2022-12-16T10:50:16.746Z,20.50
2022-12-16T10:53:08.123Z,20.37
2022-12-16T10:56:00.870Z,21.93
2022-12-16T10:58:57.881Z,24.77
2022-12-16T11:01:46.695Z,21.40
2022-12-16T11:04:52.136Z,24.93
2022-12-16T11:07:59.231Z,26.97
2022-12-16T11:10:52.162Z,31.60
2022-12-16T11:13:42.453Z,32.50
2022-12-16T11:16:34.402Z,37.20
2022-12-16T11:19:21.506Z,34.87
2022-12-16T11:22:21.871Z,37.40
2022-12-16T11:25:23.745Z,37.10
2022-12-16T11:28:08.974Z,35.97
2022-12-16T11:30:54.515Z,43.97
2022-12-16T11:33:44.287Z,43.33
2022-12-16T11:36:35.206Z,42.43
2022-12-16T11:39:21.109Z,45.93
2022-12-16T11:42:08.773Z,49.40
2022-12-16T11:45:01.735Z,44.80
2022-12-16T11:47:56.662Z,44.60
2022-12-16T11:50:44.107Z,44.33
2022-12-16T11:53:45.199Z,46.47
2022-12-16T11:56:34.442Z,49.87
2022-12-16T11:59:24.819Z,47.20
2022-12-16T12:02:16.269Z,45.67
2022-12-16T12:05:01.424Z,48.77
2022-12-16T12:07:55.803Z,54.17
2022-12-16T12:11:08.318Z,55.67
2022-12-16T12:14:10.336Z,54.17
2022-12-16T12:17:06.460Z,58.93
2022-12-16T12:20:01.286Z,55.23
2022-12-16T12:22:53.235Z,58.57
2022-12-16T12:25:43.872Z,63.30
2022-12-16T12:28:44.407Z,75.17
2022-12-16T12:31:41.533Z,69.27
2022-12-16T12:34:35.798Z,78.10
2022-12-16T12:37:27.112Z,76.57
2022-12-16T12:40:18.647Z,88.53
2022-12-16T12:43:07.830Z,87.97
2022-12-16T12:46:07.513Z,80.57
2022-12-16T12:49:01.210Z,78.67
2022-12-16T12:51:52.813Z,85.30
2022-12-16T12:54:47.209Z,86.33
2022-12-16T12:57:36.037Z,91.57
2022-12-16T13:00:24.962Z,92.03
2022-12-16T13:03:19.996Z,87.20
2022-12-16T13:06:06.844Z,90.63
2022-12-16T13:09:01.909Z,94.73
2022-12-16T13:11:47.758Z,89.17
2022-12-16T13:15:11.904Z,100.90
2022-12-16T13:18:38.422Z,87.80
2022-12-16T13:21:43.683Z,84.23
2022-12-16T13:24:43.451Z,100.43
2022-12-16T13:27:32.104Z,94.23
2022-12-16T13:30:35.611Z,96.50
2022-12-16T13:33:41.693Z,104.37
2022-12-16T13:36:28.770Z,89.87
2022-12-16T13:39:16.199Z,101.97
2022-12-16T13:42:16.252Z,93.77
2022-12-16T13:45:18.369Z,98.70
2022-12-16T13:48:21.829Z,96.37
2022-12-16T13:51:18.024Z,84.70
2022-12-16T13:54:10.350Z,98.00
2022-12-16T13:57:00.713Z,90.93
2022-12-16T13:59:50.180Z,94.60
2022-12-16T14:02:47.465Z,99.47
2022-12-16T14:05:36.985Z,95.33
2022-12-16T14:08:29.780Z,99.10
2022-12-16T14:11:19.084Z,98.23
2022-12-16T14:14:11.226Z,99.73
2022-12-16T14:17:06.289Z,85.63
2022-12-16T14:19:56.935Z,97.57
2022-12-16T14:22:57.503Z,102.27
2022-12-16T14:25:44.264Z,91.83
2022-12-16T14:28:41.577Z,95.80
2022-12-16T14:31:34.663Z,89.37
2022-12-16T14:34:20.996Z,90.40
2022-12-16T14:37:06.744Z,100.33
2022-12-16T14:39:57.696Z,89.47
2022-12-16T14:42:46.581Z,102.07
2022-12-16T14:45:46.917Z,95.63
2022-12-16T14:48:34.216Z,84.40
2022-12-16T14:51:34.358Z,86.37
2022-12-16T14:54:34.951Z,88.43
2022-12-16T14:57:20.142Z,82.60
2022-12-16T15:00:06.936Z,78.80
2022-12-16T15:02:59.675Z,87.03
2022-12-16T15:05:51.605Z,81.33
2022-12-16T15:08:39.493Z,83.97
2022-12-16T15:11:27.997Z,88.40
2022-12-16T15:14:16.467Z,86.40
2022-12-16T15:17:04.757Z,78.43
2022-12-16T15:20:03.159Z,83.87
2022-12-16T15:22:49.440Z,74.67
2022-12-16T15:25:42.572Z,77.10
2022-12-16T15:28:43.035Z,64.83
2022-12-16T15:31:32.810Z,67.83
2022-12-16T15:34:40.490Z,65.30
2022-12-16T15:37:34.437Z,59.33
2022-12-16T15:40:19.723Z,58.00
2022-12-16T15:43:09.182Z,52.63
2022-12-16T15:45:55.570Z,50.40
2022-12-16T15:48:44.782Z,50.40
2022-12-16T15:51:43.147Z,49.87
2022-12-16T15:54:34.609Z,47.87
2022-12-16T15:57:20.427Z,44.77
2022-12-16T16:00:17.024Z,43.73
2022-12-16T16:03:07.384Z,33.93
2022-12-16T16:05:54.768Z,36.17
2022-12-16T16:08:41.513Z,36.10
2022-12-16T16:11:27.157Z,33.67
2022-12-16T16:14:14.570Z,35.17
2022-12-16T16:16:59.864Z,31.70
2022-12-16T16:19:45.867Z,30.50
2022-12-16T16:22:33.263Z,32.00
2022-12-16T16:25:19.857Z,30.43
2022-12-16T16:28:05.319Z,30.97
2022-12-16T16:30:50.658Z,29.63
2022-12-16T16:33:36.220Z,30.67
2022-12-16T16:36:32.368Z,26.83
2022-12-16T16:39:17.539Z,27.50
2022-12-16T16:42:04.197Z,22.97
2022-12-16T16:45:04.044Z,21.80
2022-12-16T16:47:50.480Z,21.77
2022-12-16T16:50:35.649Z,25.03
2022-12-16T16:53:20.841Z,23.90
2022-12-16T16:56:06.281Z,24.10
2022-12-16T16:58:53.110Z,21.17
2022-12-16T17:01:38.636Z,20.80
2022-12-16T17:04:23.924Z,20.70
2022-12-16T17:07:09.100Z,19.33
2022-12-16T17:09:54.345Z,17.47
2022-12-16T17:12:43.922Z,18.13
2022-12-16T17:15:37.039Z,15.60
2022-12-16T17:18:22.916Z,16.83
2022-12-16T17:21:08.510Z,19.47
2022-12-16T17:23:54.011Z,17.10
2022-12-16T17:26:39.190Z,18.33
2022-12-16T17:29:24.630Z,14.60
2022-12-16T17:32:11.218Z,14.73
2022-12-16T17:34:56.289Z,15.00
2022-12-16T17:37:41.745Z,13.20
2022-12-16T17:40:28.259Z,14.27
2022-12-16T17:43:13.194Z,13.57
2022-12-16T17:45:58.471Z,14.60
2022-12-16T17:48:45.789Z,15.23
2022-12-16T17:51:31.343Z,12.63
2022-12-16T17:54:23.867Z,12.70
2022-12-16T17:57:07.838Z,10.37
2022-12-16T17:59:54.763Z,12.57
2022-12-16T18:02:40.277Z,10.73
2022-12-16T18:05:34.712Z,11.07
2022-12-16T18:08:23.480Z,10.23
2022-12-16T18:11:10.727Z,9.53
2022-12-16T18:13:56.120Z,9.40
2022-12-16T18:16:41.630Z,10.90
2022-12-16T18:19:29.660Z,9.60
2022-12-16T18:22:16.754Z,10.60
2022-12-16T18:25:02.052Z,9.57
2022-12-16T18:27:47.488Z,9.23
2022-12-16T18:30:33.307Z,11.23
2022-12-16T18:33:18.518Z,10.07
2022-12-16T18:36:03.904Z,10.40
2022-12-16T18:38:50.444Z,8.10
2022-12-16T18:41:37.136Z,10.43
2022-12-16T18:44:23.795Z,8.97
2022-12-16T18:47:09.257Z,9.30
2022-12-16T18:49:54.386Z,8.80
2022-12-16T18:52:39.478Z,8.93
2022-12-16T18:55:26.592Z,7.43
2022-12-16T18:58:42.206Z,8.23
2022-12-16T19:01:21.242Z,8.23
2022-12-16T19:04:17.868Z,7.20
2022-12-16T19:07:03.685Z,7.20
2022-12-16T19:09:48.991Z,6.70
2022-12-16T19:12:35.740Z,8.20
2022-12-16T19:15:23.409Z,6.83
2022-12-16T19:18:08.977Z,6.60
2022-12-16T19:20:54.679Z,6.83
2022-12-16T19:23:50.275Z,7.47
2022-12-16T19:26:35.750Z,7.00
2022-12-16T19:29:22.640Z,6.83
2022-12-16T19:32:07.994Z,7.93
2022-12-16T19:34:53.532Z,7.57
2022-12-16T19:37:38.947Z,6.73
2022-12-16T19:40:25.441Z,7.07
2022-12-16T19:43:10.637Z,7.60
2022-12-16T19:45:57.009Z,7.23
2022-12-16T19:48:56.693Z,9.23
2022-12-16T19:51:42.131Z,6.73
2022-12-16T19:54:27.199Z,8.57
2022-12-16T19:57:12.809Z,9.13
2022-12-16T19:59:58.050Z,6.80
2022-12-16T20:02:45.054Z,7.73
2022-12-16T20:05:30.735Z,6.77
2022-12-16T20:08:16.213Z,6.43
2022-12-16T20:11:01.481Z,7.50
2022-12-16T20:13:46.663Z,7.87
2022-12-16T20:16:32.606Z,7.07
2022-12-16T20:19:19.351Z,7.77
2022-12-16T20:25:09.908Z,6.30
2022-12-16T20:28:09.906Z,8.33
2022-12-16T20:30:56.204Z,7.40
2022-12-16T20:33:42.156Z,7.73
2022-12-16T20:36:25.581Z,9.40
2022-12-16T20:39:13.320Z,8.50
2022-12-16T20:41:58.717Z,8.07
2022-12-16T20:44:44.063Z,9.03
2022-12-16T20:47:30.554Z,7.90
2022-12-16T20:50:15.987Z,8.10
2022-12-16T20:53:02.416Z,8.47
2022-12-16T20:55:47.639Z,7.37
2022-12-16T20:58:36.036Z,7.73
2022-12-16T21:01:21.547Z,7.77
2022-12-16T21:04:27.211Z,8.27
2022-12-16T21:07:32.668Z,8.03
2022-12-16T21:10:40.048Z,7.97
2022-12-16T21:13:46.245Z,6.97
2022-12-16T21:16:51.713Z,7.93
2022-12-16T21:19:57.123Z,7.63
2022-12-16T21:23:03.064Z,6.77
2022-12-16T21:26:10.189Z,8.00
2022-12-16T21:29:16.103Z,6.03
2022-12-16T21:32:33.192Z,7.43
2022-12-16T21:35:39.081Z,5.93
2022-12-16T21:38:44.860Z,7.97
2022-12-16T21:41:51.981Z,6.63
2022-12-16T21:44:57.424Z,7.00
2022-12-16T21:48:03.072Z,6.13
2022-12-16T21:51:17.430Z,6.80
2022-12-16T21:54:23.304Z,6.83
2022-12-16T21:57:38.493Z,6.67
2022-12-16T22:00:44.238Z,6.30
2022-12-16T22:03:52.962Z,7.03
2022-12-16T22:06:59.247Z,6.63
2022-12-16T22:10:04.968Z,6.37
2022-12-16T22:13:11.992Z,7.27
2022-12-16T22:16:18.729Z,6.17
2022-12-16T22:19:24.504Z,6.90
2022-12-16T22:22:45.049Z,6.03
2022-12-16T22:25:55.988Z,5.93
2022-12-16T22:29:02.913Z,5.97
2022-12-16T22:32:08.687Z,6.30
2022-12-16T22:35:15.075Z,5.57
2022-12-16T22:38:20.413Z,6.40
2022-12-16T22:41:38.519Z,6.33
2022-12-16T22:44:45.395Z,6.03
2022-12-16T22:47:51.161Z,6.13
2022-12-16T22:50:57.608Z,5.87
2022-12-16T22:54:03.363Z,5.80
2022-12-16T22:57:09.217Z,7.27
2022-12-16T23:00:16.439Z,6.17
2022-12-16T23:03:22.966Z,5.53
2022-12-16T23:06:30.998Z,7.23
2022-12-16T23:09:36.782Z,5.37
2022-12-16T23:12:42.109Z,5.33
2022-12-16T23:15:49.133Z,5.37
2022-12-16T23:18:56.397Z,5.43
2022-12-16T23:22:02.048Z,5.67
2022-12-16T23:25:07.861Z,5.30
2022-12-16T23:28:13.671Z,5.07
2022-12-16T23:31:20.803Z,6.10
2022-12-16T23:34:26.313Z,6.13
2022-12-16T23:37:32.070Z,5.30
2022-12-16T23:40:37.988Z,5.93
2022-12-16T23:43:43.761Z,6.00
2022-12-16T23:46:50.710Z,5.70
2022-12-16T23:49:58.962Z,5.83
2022-12-16T23:53:04.483Z,6.57
2022-12-16T23:56:13.613Z,5.73
2022-12-16T23:59:18.952Z,5.80
